Time;durP1;ratioP1;P1;durP2;ratioP2;P2;SDS_P1;SDS_P2;PMS_P1;PMS_P2;Temp;Humidity;BMP_temperature;BMP_pressure;BME280_temperature;BME280_humidity;BME280_pressure;Samples;Min_cycle;Max_cycle;Signal;HPM_P1;HPM_P2
2022/07/02 00:00:11;;;;;;;;;4.00;4.00;;;;;18.29;81.05;101877.81;5056879;28;45363;-80
2022/07/02 00:02:41;;;;;;;;;5.00;3.67;;;;;18.22;81.36;101876.06;5075857;28;45652;-80
2022/07/02 00:05:07;;;;;;;;;3.33;3.33;;;;;18.20;81.66;101883.19;5075812;28;46789;-78
2022/07/02 00:07:33;;;;;;;;;2.33;2.33;;;;;18.15;81.81;101882.31;5075907;28;45447;-78
2022/07/02 00:09:59;;;;;;;;;3.00;3.00;;;;;18.12;82.36;101879.69;5074967;28;45470;-79
2022/07/02 00:12:26;;;;;;;;;5.67;5.00;;;;;18.09;82.47;101879.66;5058321;28;45697;-81
2022/07/02 00:14:55;;;;;;;;;4.00;4.00;;;;;18.05;82.58;101871.66;5075884;28;46622;-78
2022/07/02 00:17:21;;;;;;;;;4.33;4.33;;;;;17.99;83.07;101878.81;5053339;28;45470;-77
2022/07/02 00:19:47;;;;;;;;;4.00;4.00;;;;;17.95;84.52;101885.97;5075981;28;45489;-79
2022/07/02 00:22:14;;;;;;;;;6.33;4.00;;;;;17.91;84.39;101876.16;5076674;28;45247;-78
2022/07/02 00:24:42;;;;;;;;;6.33;5.00;;;;;17.89;84.96;101871.69;5075589;28;45445;-78
2022/07/02 00:27:12;;;;;;;;;3.67;3.67;;;;;17.86;85.23;101879.75;5075872;28;45369;-80
2022/07/02 00:29:44;;;;;;;;;5.00;5.00;;;;;17.80;85.15;101877.97;5059037;28;45412;-80
2022/07/02 00:32:09;;;;;;;;;5.33;4.00;;;;;17.79;85.27;101886.91;5060884;28;45399;-78
2022/07/02 00:34:36;;;;;;;;;3.33;3.33;;;;;17.74;85.48;101883.34;5078969;28;54856;-79
2022/07/02 00:37:02;;;;;;;;;2.00;1.33;;;;;17.71;85.87;101888.63;5060387;28;45402;-78
2022/07/02 00:39:28;;;;;;;;;5.00;4.00;;;;;17.67;86.11;101877.06;5072259;28;45374;-78
2022/07/02 00:41:54;;;;;;;;;8.33;3.00;;;;;17.63;86.65;101871.72;5078799;28;45488;-79
2022/07/02 00:44:22;;;;;;;;;5.00;4.00;;;;;17.62;87.17;101885.97;5078051;28;45811;-77
2022/07/02 00:46:48;;;;;;;;;6.00;4.00;;;;;17.60;87.41;101879.75;5079217;28;45219;-77
2022/07/02 00:49:13;;;;;;;;;4.67;4.67;;;;;17.55;87.76;101872.63;5079369;28;45265;-77
2022/07/02 00:51:38;;;;;;;;;5.00;5.00;;;;;17.52;88.22;101878.00;5060996;28;45645;-77
2022/07/02 00:54:04;;;;;;;;;4.00;4.00;;;;;17.49;88.66;101871.75;5077156;28;70140;-78
2022/07/02 00:56:29;;;;;;;;;4.00;4.00;;;;;17.44;89.34;101868.19;5078954;28;45386;-80
2022/07/02 00:58:55;;;;;;;;;5.00;5.00;;;;;17.41;89.71;101860.16;5060691;28;45388;-77
2022/07/02 01:01:20;;;;;;;;;10.33;5.00;;;;;17.39;89.85;101870.88;5060885;28;45563;-79
2022/07/02 01:03:47;;;;;;;;;6.33;5.00;;;;;17.35;90.22;101865.53;5077865;28;65862;-79
2022/07/02 01:06:13;;;;;;;;;8.00;5.00;;;;;17.34;90.66;101871.75;5060007;28;45443;-79
2022/07/02 01:11:25;;;;;;;;;5.00;4.00;;;;;17.29;92.19;101864.63;5063284;28;45386;-77
2022/07/02 01:13:51;;;;;;;;;4.33;3.33;;;;;17.29;92.28;101869.97;5060371;28;45837;-78
2022/07/02 01:16:16;;;;;;;;;3.00;3.00;;;;;17.28;92.62;101861.97;5076135;28;45548;-78
2022/07/02 01:18:42;;;;;;;;;3.00;3.00;;;;;17.27;92.95;101869.09;5078693;28;49535;-79
2022/07/02 01:21:07;;;;;;;;;3.00;3.00;;;;;17.26;93.61;101869.09;5060298;28;45559;-77
2022/07/02 01:23:32;;;;;;;;;6.00;4.00;;;;;17.25;94.17;101868.19;5042735;28;48694;-80
2022/07/02 01:25:58;;;;;;;;;2.67;2.67;;;;;17.21;95.05;101869.09;5077615;28;53133;-78
2022/07/02 01:28:23;;;;;;;;;4.00;4.00;;;;;17.22;95.44;101875.31;5077987;28;45462;-78
2022/07/02 01:30:49;;;;;;;;;5.67;4.33;;;;;17.20;95.93;101869.06;5077592;28;56953;-80
2022/07/02 01:33:15;;;;;;;;;6.00;4.00;;;;;17.19;96.35;101877.97;5059847;28;45788;-78
2022/07/02 01:35:40;;;;;;;;;5.33;4.00;;;;;17.16;96.59;101881.56;5060607;28;45239;-78
2022/07/02 01:38:06;;;;;;;;;4.00;3.00;;;;;17.14;96.78;101888.66;5078041;28;51712;-78
2022/07/02 01:40:31;;;;;;;;;3.00;3.00;;;;;17.14;97.66;101877.09;5076373;28;60758;-78
2022/07/02 01:42:57;;;;;;;;;4.67;4.67;;;;;17.14;97.98;101883.31;5059618;28;53953;-77
2022/07/02 01:45:22;;;;;;;;;4.00;4.00;;;;;17.12;98.49;101879.75;5074372;28;66656;-77
2022/07/02 01:47:48;;;;;;;;;3.67;3.67;;;;;17.14;98.79;101885.97;5077383;28;58905;-78
2022/07/02 01:50:13;;;;;;;;;6.33;4.33;;;;;17.12;99.06;101877.09;5060092;28;45572;-78
2022/07/02 01:52:38;;;;;;;;;6.00;4.67;;;;;17.14;99.56;101880.63;5059833;28;46382;-78
2022/07/02 01:55:04;;;;;;;;;3.33;3.33;;;;;17.12;99.93;101873.53;5057928;28;67331;-78
2022/07/02 01:57:33;;;;;;;;;8.00;5.00;;;;;17.11;100.00;101878.00;5060019;28;45498;-80
2022/07/02 01:59:59;;;;;;;;;7.00;5.67;;;;;17.10;100.00;101883.28;5077740;28;45315;-78
2022/07/02 02:02:24;;;;;;;;;6.67;4.33;;;;;17.08;100.00;101877.09;5076147;28;46689;-79
2022/07/02 02:04:50;;;;;;;;;6.00;4.00;;;;;17.05;100.00;101875.31;5077349;28;62894;-79
2022/07/02 02:07:15;;;;;;;;;8.33;5.00;;;;;17.03;100.00;101871.72;5077394;28;58073;-77
2022/07/02 02:09:40;;;;;;;;;5.00;5.00;;;;;17.03;100.00;101875.28;5055899;28;45677;-79
2022/07/02 02:12:06;;;;;;;;;6.67;4.00;;;;;16.97;100.00;101867.28;5078002;28;45859;-78
2022/07/02 02:14:31;;;;;;;;;6.33;5.33;;;;;16.99;100.00;101867.28;5059022;28;45618;-77
2022/07/02 02:16:57;;;;;;;;;5.33;4.00;;;;;16.95;100.00;101871.75;5077089;28;58330;-78
2022/07/02 02:19:22;;;;;;;;;4.00;4.00;;;;;16.94;100.00;101871.75;5077120;28;45640;-78
2022/07/02 02:21:48;;;;;;;;;7.00;5.00;;;;;16.92;100.00;101869.06;5058409;28;61854;-77
2022/07/02 02:24:13;;;;;;;;;8.00;6.00;;;;;16.89;100.00;101862.84;5053891;28;60259;-79
2022/07/02 02:26:38;;;;;;;;;5.67;5.67;;;;;16.85;100.00;101855.72;5077789;28;45468;-79
2022/07/02 02:29:04;;;;;;;;;5.67;5.67;;;;;16.84;100.00;101861.94;5076554;28;57488;-80
2022/07/02 02:31:29;;;;;;;;;7.33;6.00;;;;;16.81;100.00;101857.47;5076952;28;53895;-77
2022/07/02 02:33:54;;;;;;;;;5.67;5.67;;;;;16.76;100.00;101862.81;5077464;28;45382;-78
2022/07/02 02:36:20;;;;;;;;;7.00;5.67;;;;;16.74;100.00;101853.91;5076825;28;63256;-79
2022/07/02 02:38:46;;;;;;;;;7.00;5.67;;;;;16.72;100.00;101849.44;5076389;28;57050;-77
2022/07/02 02:41:12;;;;;;;;;8.67;6.00;;;;;16.68;100.00;101856.53;5077404;28;45994;-78
2022/07/02 02:43:37;;;;;;;;;8.67;5.00;;;;;16.67;100.00;101857.44;5076395;28;45248;-78
2022/07/02 02:46:05;;;;;;;;;8.00;6.33;;;;;16.64;100.00;101859.19;5077521;28;45287;-80
2022/07/02 02:48:31;;;;;;;;;5.00;5.00;;;;;16.60;100.00;101855.63;5076700;28;45525;-77
2022/07/02 02:50:57;;;;;;;;;8.00;5.33;;;;;16.60;100.00;101852.97;5077440;28;45793;-79
2022/07/02 02:53:22;;;;;;;;;6.00;6.00;;;;;16.58;100.00;101851.19;5076026;28;45710;-78
2022/07/02 02:55:47;;;;;;;;;6.00;5.00;;;;;16.55;100.00;101854.72;5057993;28;50530;-81
2022/07/02 02:58:13;;;;;;;;;8.75;6.00;;;;;16.52;100.00;101846.72;5075963;28;59719;-77
2022/07/02 03:00:38;;;;;;;;;7.33;4.00;;;;;16.49;100.00;101842.25;5076787;28;46578;-79
2022/07/02 03:03:04;;;;;;;;;12.67;5.33;;;;;16.46;100.00;101850.28;5076726;28;45312;-78
2022/07/02 03:05:29;;;;;;;;;6.67;5.67;;;;;16.45;100.00;101844.91;5075409;27;61505;-78
2022/07/02 03:07:54;;;;;;;;;7.67;7.00;;;;;16.44;100.00;101853.78;5058184;28;50600;-77
2022/07/02 03:10:20;;;;;;;;;7.67;6.00;;;;;16.41;100.00;101849.38;5075988;28;63962;-77
2022/07/02 03:12:45;;;;;;;;;6.67;6.67;;;;;16.38;100.00;101851.13;5076900;28;45283;-78
2022/07/02 03:15:10;;;;;;;;;6.33;6.00;;;;;16.35;100.00;101852.00;5041403;28;63073;-78
2022/07/02 03:17:36;;;;;;;;;7.33;6.00;;;;;16.32;100.00;101851.09;5076591;28;45379;-78
2022/07/02 03:20:02;;;;;;;;;8.00;6.67;;;;;16.32;100.00;101852.00;5057336;28;60725;-78
2022/07/02 03:22:27;;;;;;;;;6.67;5.00;;;;;16.30;100.00;101858.19;5076689;28;45312;-78
2022/07/02 03:24:52;;;;;;;;;6.00;6.00;;;;;16.26;100.00;101845.75;5075754;28;45407;-80
2022/07/02 03:27:18;;;;;;;;;7.75;6.00;;;;;16.26;100.00;101854.63;5058612;28;45261;-77
2022/07/02 03:29:43;;;;;;;;;6.00;6.00;;;;;16.24;100.00;101853.72;5075011;28;67644;-77
2022/07/02 03:32:08;;;;;;;;;7.33;4.67;;;;;16.21;100.00;101854.63;5058397;28;45308;-77
2022/07/02 03:34:34;;;;;;;;;5.00;5.00;;;;;16.21;100.00;101851.06;5075452;28;60463;-80
2022/07/02 03:36:59;;;;;;;;;6.00;5.00;;;;;16.19;100.00;101851.06;5076379;28;57730;-78
2022/07/02 03:39:24;;;;;;;;;5.00;5.00;;;;;16.18;100.00;101846.59;5075323;28;69618;-78
2022/07/02 03:41:50;;;;;;;;;7.50;6.00;;;;;16.17;100.00;101842.16;5074941;28;60761;-78
2022/07/02 03:44:15;;;;;;;;;6.00;5.00;;;;;16.16;100.00;101848.38;5074309;28;57572;-77
2022/07/02 03:46:40;;;;;;;;;4.00;4.00;;;;;16.14;100.00;101842.16;5058646;28;45351;-78
2022/07/02 03:49:06;;;;;;;;;6.00;5.00;;;;;16.14;100.00;101855.47;5075179;28;68838;-76
2022/07/02 03:51:31;;;;;;;;;7.00;5.50;;;;;16.13;100.00;101858.13;5076461;28;45688;-78
2022/07/02 03:53:57;;;;;;;;;6.25;4.50;;;;;16.12;100.00;101851.00;5056672;28;63902;-79
2022/07/02 03:56:22;;;;;;;;;9.50;5.00;;;;;16.12;100.00;101859.91;5074988;28;63930;-79
2022/07/02 03:58:47;;;;;;;;;6.00;5.00;;;;;16.11;100.00;101847.47;5074955;28;65242;-78
2022/07/02 04:01:12;;;;;;;;;6.00;5.50;;;;;16.15;100.00;101848.38;5056338;28;68757;-78
2022/07/02 04:03:38;;;;;;;;;8.00;5.00;;;;;16.13;100.00;101845.69;5075707;28;47740;-77
2022/07/02 04:06:03;;;;;;;;;7.00;5.75;;;;;16.12;100.00;101856.34;5061239;28;58994;-78
2022/07/02 04:08:29;;;;;;;;;6.67;4.00;;;;;16.13;100.00;101844.78;5079023;28;45434;-78
2022/07/02 04:10:54;;;;;;;;;6.25;6.25;;;;;16.14;100.00;101852.81;5078930;28;67341;-78
2022/07/02 04:13:20;;;;;;;;;5.50;5.50;;;;;16.14;100.00;101855.47;5061423;28;45300;-79
2022/07/02 04:15:45;;;;;;;;;7.00;5.00;;;;;16.16;100.00;101850.16;5055652;28;45319;-80
2022/07/02 04:18:11;;;;;;;;;8.25;6.00;;;;;16.14;100.00;101852.81;5078943;28;46563;-80
2022/07/02 04:20:36;;;;;;;;;5.33;5.00;;;;;16.16;100.00;101859.03;5079229;28;45527;-77
2022/07/02 04:23:01;;;;;;;;;8.00;5.33;;;;;16.16;100.00;101863.47;5079697;28;45232;-78
2022/07/02 04:25:28;;;;;;;;;8.33;7.33;;;;;16.15;100.00;101841.28;5059995;28;59717;-77
2022/07/02 04:27:54;;;;;;;;;7.25;6.75;;;;;16.16;100.00;101851.03;5079729;28;46074;-78
2022/07/02 04:30:19;;;;;;;;;6.00;6.00;;;;;16.13;100.00;101843.00;5079075;28;45457;-78
2022/07/02 04:32:44;;;;;;;;;8.00;5.33;;;;;16.17;100.00;101850.16;5059935;28;61874;-77
2022/07/02 04:35:10;;;;;;;;;10.00;6.00;;;;;16.19;100.00;101864.38;5079833;28;45489;-78
2022/07/02 04:37:35;;;;;;;;;4.33;4.33;;;;;16.19;100.00;101856.41;5078990;28;46490;-76
2022/07/02 04:40:00;;;;;;;;;6.00;5.00;;;;;16.17;100.00;101849.25;5079283;28;45333;-78
2022/07/02 04:42:26;;;;;;;;;8.00;6.75;;;;;16.20;100.00;101866.16;5078286;28;57965;-79
2022/07/02 04:44:51;;;;;;;;;7.50;6.25;;;;;16.21;100.00;101865.28;5078312;28;45283;-80
2022/07/02 04:47:16;;;;;;;;;9.75;7.75;;;;;16.19;100.00;101856.41;5079105;28;45520;-77
2022/07/02 04:49:42;;;;;;;;;6.00;5.00;;;;;16.22;100.00;101858.16;5059743;28;66117;-80
2022/07/02 04:52:07;;;;;;;;;7.50;7.00;;;;;16.22;100.00;101852.84;5060265;28;55071;-79
2022/07/02 04:54:32;;;;;;;;;5.00;5.00;;;;;16.23;100.00;101844.84;5188191;22;55583;-79
2022/07/02 04:56:58;;;;;;;;;6.00;6.00;;;;;16.28;100.00;101858.19;5081131;27;52693;-79
2022/07/02 04:59:23;;;;;;;;;6.00;6.00;;;;;16.30;100.00;101855.50;5077999;28;65193;-79
2022/07/02 05:01:49;;;;;;;;;7.00;7.00;;;;;16.32;100.00;101864.44;5077411;28;61110;-79
2022/07/02 05:04:14;;;;;;;;;11.75;6.75;;;;;16.34;100.00;101857.31;5078966;27;45307;-78
2022/07/02 05:06:40;;;;;;;;;9.00;8.00;;;;;16.36;100.00;101860.91;5077275;28;45480;-79
2022/07/02 05:09:05;;;;;;;;;7.50;6.00;;;;;16.38;100.00;101860.00;5077202;28;45256;-78
2022/07/02 05:11:31;;;;;;;;;8.00;6.00;;;;;16.39;100.00;101856.44;5078271;28;45479;-78
2022/07/02 05:13:56;;;;;;;;;7.50;5.75;;;;;16.42;100.00;101855.59;5077904;28;45335;-79
2022/07/02 05:16:22;;;;;;;;;6.00;6.00;;;;;16.43;100.00;101852.03;5076948;28;45576;-79
2022/07/02 05:18:47;;;;;;;;;7.50;7.50;;;;;16.45;100.00;101860.91;5078251;28;45547;-78
2022/07/02 05:21:13;;;;;;;;;8.00;6.50;;;;;16.49;100.00;101854.72;5077020;28;45930;-78
2022/07/02 05:23:39;;;;;;;;;10.50;8.00;;;;;16.53;100.00;101858.28;5079126;27;45528;-78
2022/07/02 05:26:05;;;;;;;;;7.75;7.00;;;;;16.56;100.00;101858.28;5077323;27;69279;-78
2022/07/02 05:28:30;;;;;;;;;8.33;6.67;;;;;16.56;100.00;101852.94;5076770;28;45313;-79
2022/07/02 05:30:56;;;;;;;;;8.67;8.67;;;;;16.60;100.00;101857.41;5078482;28;45414;-78
2022/07/02 05:33:21;;;;;;;;;8.00;8.00;;;;;16.63;100.00;101860.09;5078468;28;45608;-78
2022/07/02 05:35:47;;;;;;;;;9.67;7.00;;;;;16.67;100.00;101857.44;5076852;28;46597;-77
2022/07/02 05:38:12;;;;;;;;;10.33;8.67;;;;;16.71;100.00;101861.00;5076559;28;64653;-80
2022/07/02 05:40:38;;;;;;;;;9.67;7.00;;;;;16.75;100.00;101862.81;5077545;28;57302;-80
2022/07/02 05:43:03;;;;;;;;;8.25;6.00;;;;;16.79;100.00;101855.72;5077407;28;45449;-78
2022/07/02 05:45:29;;;;;;;;;11.33;9.33;;;;;16.83;100.00;101860.13;5076715;28;46561;-79
2022/07/02 05:47:54;;;;;;;;;8.33;8.33;;;;;16.86;100.00;101855.72;5077930;28;46899;-78
2022/07/02 05:50:19;;;;;;;;;9.25;9.00;;;;;16.90;100.00;101862.84;5077398;28;58923;-80
2022/07/02 05:52:45;;;;;;;;;11.67;7.33;;;;;16.93;100.00;101859.28;5078586;27;45391;-79
2022/07/02 05:55:11;;;;;;;;;9.00;8.67;;;;;16.97;100.00;101861.06;5080697;27;45917;-79
2022/07/02 05:57:36;;;;;;;;;9.00;9.00;;;;;17.00;100.00;101859.28;5080069;27;58884;-79
2022/07/02 06:00:06;;;;;;;;;10.00;8.67;;;;;17.03;100.00;101851.28;5077199;27;45456;-79
2022/07/02 06:02:31;;;;;;;;;8.00;7.00;;;;;17.08;100.00;101859.28;5077421;27;45470;-81
2022/07/02 06:04:57;;;;;;;;;7.33;7.00;;;;;17.12;100.00;101862.88;5076480;28;70148;-78
2022/07/02 06:07:40;;;;;;;;;10.67;9.00;;;;;17.17;100.00;101856.63;5076765;28;45530;-79
2022/07/02 06:10:07;;;;;;;;;9.67;9.00;;;;;17.21;100.00;101852.19;5077614;28;45370;-77
2022/07/02 06:12:32;;;;;;;;;10.00;10.00;;;;;17.26;100.00;101855.75;5077026;28;45624;-78
2022/07/02 06:14:57;;;;;;;;;8.67;8.33;;;;;17.29;100.00;101845.06;5076417;28;70096;-79
2022/07/02 06:17:23;;;;;;;;;10.67;8.00;;;;;17.34;100.00;101855.75;5076590;28;62220;-80
2022/07/02 06:19:48;;;;;;;;;11.25;10.00;;;;;17.39;100.00;101853.97;5077330;28;50268;-78
2022/07/02 06:22:14;;;;;;;;;10.00;9.33;;;;;17.43;100.00;101853.06;5077593;28;45369;-77
2022/07/02 06:24:40;;;;;;;;;10.00;10.00;;;;;17.48;100.00;101853.97;5075301;28;45692;-79
2022/07/02 06:27:05;;;;;;;;;8.00;8.00;;;;;17.55;100.00;101850.38;5075086;28;45572;-79
2022/07/02 06:29:31;;;;;;;;;9.00;9.00;;;;;17.61;100.00;101852.16;5077055;27;51536;-80
2022/07/02 06:31:56;;;;;;;;;11.33;9.00;;;;;17.66;100.00;101843.22;5076502;28;45582;-78
2022/07/02 06:34:22;;;;;;;;;8.00;7.33;;;;;17.76;100.00;101842.34;5076745;28;46262;-79
2022/07/02 06:36:47;;;;;;;;;11.00;8.00;;;;;17.84;100.00;101847.66;5076502;28;45339;-79
2022/07/02 06:39:12;;;;;;;;;7.00;7.00;;;;;17.91;100.00;101843.22;5078203;27;45579;-78
2022/07/02 06:44:22;;;;;;;;;9.00;8.00;;;;;18.06;100.00;101844.06;5077369;28;45497;-81
2022/07/02 06:46:47;;;;;;;;;10.67;8.00;;;;;18.15;100.00;101840.44;5075297;28;45330;-81
2022/07/02 06:49:12;;;;;;;;;7.67;7.00;;;;;18.23;100.00;101845.78;5076865;28;63150;-79
2022/07/02 06:51:38;;;;;;;;;8.33;7.00;;;;;18.29;100.00;101838.59;5076411;28;61035;-81
2022/07/02 06:54:03;;;;;;;;;11.00;8.33;;;;;18.35;100.00;101839.47;5075041;28;47702;-80
2022/07/02 06:56:31;;;;;;;;;8.00;8.00;;;;;18.42;100.00;101838.53;5076516;28;45485;-79
2022/07/02 06:58:57;;;;;;;;;7.33;7.00;;;;;18.50;100.00;101844.75;5075002;28;45534;-79
2022/07/02 07:01:22;;;;;;;;;8.33;7.00;;;;;18.62;100.00;101841.09;5075199;28;45554;-79
2022/07/02 07:03:48;;;;;;;;;5.00;5.00;;;;;18.70;100.00;101839.31;5075599;28;46251;-80
2022/07/02 07:06:13;;;;;;;;;3.33;3.33;;;;;18.78;100.00;101840.13;5076672;27;45417;-76
2022/07/02 07:08:38;;;;;;;;;6.67;6.00;;;;;18.87;100.00;101839.19;5076347;28;60587;-81
2022/07/02 07:11:04;;;;;;;;;4.67;4.67;;;;;18.90;100.00;101845.38;5075740;28;63082;-80
2022/07/02 07:13:29;;;;;;;;;4.33;4.00;;;;;18.96;100.00;101833.75;5075908;28;46384;-77
2022/07/02 07:15:55;;;;;;;;;3.67;3.67;;;;;19.04;100.00;101839.94;5068873;28;54843;-80
2022/07/02 07:18:20;;;;;;;;;3.00;2.67;;;;;19.09;100.00;101833.66;5072985;28;45964;-79
2022/07/02 07:20:47;;;;;;;;;2.00;2.00;;;;;19.15;100.00;101832.72;5074450;28;62919;-80
2022/07/02 07:23:13;;;;;;;;;3.00;3.00;;;;;19.19;100.00;101834.47;5075917;27;47349;-79
2022/07/02 07:25:38;;;;;;;;;4.00;4.00;;;;;19.23;98.98;101829.97;5075219;27;45449;-79
2022/07/02 07:28:04;;;;;;;;;3.33;2.00;;;;;19.29;99.17;101821.91;5073734;28;62775;-80
2022/07/02 07:30:29;;;;;;;;;3.67;1.67;;;;;19.33;99.00;101823.63;5071562;28;45545;-79
2022/07/02 07:32:54;;;;;;;;;3.00;2.33;;;;;19.40;96.90;101816.44;5071678;27;67124;-80
2022/07/02 07:35:20;;;;;;;;;1.33;1.33;;;;;19.45;95.08;101822.63;5076940;28;45471;-77
2022/07/02 07:37:57;;;;;;;;;3.67;2.00;;;;;19.53;93.33;101823.44;5076207;28;46794;-79
2022/07/02 07:40:23;;;;;;;;;1.00;1.00;;;;;19.58;93.98;101818.91;5075778;28;45422;-80
2022/07/02 07:42:48;;;;;;;;;1.00;1.00;;;;;19.63;93.07;101822.47;5076126;27;46240;-81
2022/07/02 07:45:13;;;;;;;;;2.00;2.00;;;;;19.68;91.35;101823.31;5075854;28;61269;-80
2022/07/02 07:47:39;;;;;;;;;1.00;1.00;;;;;19.73;90.73;101824.16;5074389;28;52793;-79
2022/07/02 07:50:05;;;;;;;;;1.00;1.00;;;;;19.81;89.54;101824.94;5072324;28;45593;-79
2022/07/02 07:52:31;;;;;;;;;1.00;1.00;;;;;19.86;89.16;101815.03;5072214;28;46737;-79
2022/07/02 07:54:56;;;;;;;;;1.00;1.00;;;;;19.95;87.99;101815.84;5067091;28;45534;-79
2022/07/02 07:57:21;;;;;;;;;1.00;1.00;;;;;20.01;87.46;101818.47;5071911;28;63634;-76
2022/07/02 07:59:47;;;;;;;;;1.67;1.00;;;;;20.05;85.29;101809.47;5071593;27;60870;-74
2022/07/02 08:02:12;;;;;;;;;0.00;0.00;;;;;20.11;85.68;101817.44;5072957;28;64238;-75
2022/07/02 08:04:37;;;;;;;;;1.00;1.00;;;;;20.20;84.94;101817.34;5074109;28;45460;-74
2022/07/02 08:07:03;;;;;;;;;1.33;1.33;;;;;20.23;83.59;101809.22;5071807;28;64887;-74
2022/07/02 08:09:28;;;;;;;;;4.33;1.00;;;;;20.29;83.77;101810.94;5075525;28;46764;-74
2022/07/02 08:11:54;;;;;;;;;0.67;0.67;;;;;20.34;79.22;101806.41;5073516;28;46301;-73
2022/07/02 08:14:19;;;;;;;;;2.00;0.00;;;;;20.41;80.80;101805.44;5073319;28;45486;-75
2022/07/02 08:16:44;;;;;;;;;0.67;0.67;;;;;20.44;82.24;101802.69;5071732;28;56102;-74
2022/07/02 08:19:09;;;;;;;;;1.00;1.00;;;;;20.48;80.66;101803.56;5069148;28;48098;-76
2022/07/02 08:21:35;;;;;;;;;1.00;1.00;;;;;20.55;81.63;101808.81;5071919;28;66213;-73
2022/07/02 08:24:00;;;;;;;;;1.00;1.00;;;;;20.58;77.48;101803.41;5073774;28;48401;-74
2022/07/02 08:26:25;;;;;;;;;1.00;1.00;;;;;20.64;79.94;101815.84;5069805;28;60704;-72
2022/07/02 08:28:51;;;;;;;;;1.00;1.00;;;;;20.65;77.98;101804.19;5066241;27;53244;-74
2022/07/02 08:31:16;;;;;;;;;2.00;1.00;;;;;20.73;77.82;101815.72;5069375;27;62690;-74
2022/07/02 08:33:41;;;;;;;;;0.67;0.67;;;;;20.77;76.76;101804.00;5069481;27;45546;-76
2022/07/02 08:36:07;;;;;;;;;1.00;1.00;;;;;20.81;77.37;101802.16;5071983;28;45783;-76
2022/07/02 08:38:32;;;;;;;;;0.00;0.00;;;;;20.84;76.67;101792.28;5069982;28;45549;-76
2022/07/02 08:40:57;;;;;;;;;0.00;0.00;;;;;20.89;76.23;101797.56;5070383;27;56426;-76
2022/07/02 08:43:26;;;;;;;;;2.33;1.00;;;;;20.93;76.63;101802.88;5073375;28;45490;-76
2022/07/02 08:45:52;;;;;;;;;1.00;1.00;;;;;20.99;75.23;101804.56;5074122;27;45523;-76
2022/07/02 08:48:18;;;;;;;;;0.67;0.33;;;;;21.02;74.64;101796.44;5072881;28;45624;-75
2022/07/02 08:50:45;;;;;;;;;0.00;0.00;;;;;21.07;72.73;101789.19;5075269;27;48720;-76
2022/07/02 08:53:11;;;;;;;;;1.00;1.00;;;;;21.12;73.37;101791.81;5077632;27;45371;-75
2022/07/02 08:55:36;;;;;;;;;0.67;0.67;;;;;21.15;72.80;101797.13;5075924;28;53453;-73
2022/07/02 08:58:02;;;;;;;;;0.33;0.33;;;;;21.19;72.26;101788.09;5069262;28;45499;-76
2022/07/02 09:00:28;;;;;;;;;2.00;0.00;;;;;21.23;73.48;101788.94;5077035;28;45907;-75
2022/07/02 09:02:56;;;;;;;;;1.00;1.00;;;;;21.23;73.02;101775.50;5075654;28;45544;-76
2022/07/02 09:05:24;;;;;;;;;0.00;0.00;;;;;21.28;74.00;101785.25;5078146;27;45507;-75
2022/07/02 09:07:50;;;;;;;;;0.00;0.00;;;;;21.31;72.88;101779.88;5078477;27;45625;-74
2022/07/02 09:10:17;;;;;;;;;1.33;0.67;;;;;21.35;73.40;101778.00;5058707;28;46706;-79
2022/07/02 09:12:43;;;;;;;;;2.00;0.00;;;;;21.39;73.71;101775.22;5078538;27;45413;-77
2022/07/02 09:15:09;;;;;;;;;2.00;0.00;;;;;21.44;72.49;101778.69;5070503;27;45670;-76
2022/07/02 09:17:35;;;;;;;;;1.00;1.00;;;;;21.48;73.22;101776.84;5066584;27;46402;-74
2022/07/02 09:20:00;;;;;;;;;1.00;1.00;;;;;21.54;71.79;101778.53;5072341;28;47517;-75
2022/07/02 09:22:37;;;;;;;;;2.00;0.00;;;;;21.56;70.47;101776.69;5074827;27;45491;-74
2022/07/02 09:25:23;;;;;;;;;1.00;0.00;;;;;21.59;72.00;101768.59;5072975;28;45933;-75
2022/07/02 09:28:00;;;;;;;;;0.00;0.00;;;;;21.62;70.78;101773.88;5074767;27;45483;-73
2022/07/02 09:30:29;;;;;;;;;0.67;0.67;;;;;21.68;70.37;101776.47;5074145;28;46973;-74
2022/07/02 09:33:28;;;;;;;;;0.33;0.33;;;;;21.71;72.53;101771.91;5077312;27;45843;-72
2022/07/02 09:35:40;;;;;;;;;2.00;0.00;;;;;21.76;72.10;101769.13;5069011;28;45394;-78
2022/07/02 09:38:10;;;;;;;;;0.00;0.00;;;;;21.79;69.40;101771.75;5076970;27;60224;-74
2022/07/02 09:40:35;;;;;;;;;0.00;0.00;;;;;21.83;69.81;101776.13;5072105;28;47617;-76
2022/07/02 09:43:00;;;;;;;;;0.67;0.67;;;;;21.88;71.13;101762.59;5072368;28;46011;-74
2022/07/02 09:45:26;;;;;;;;;0.67;0.00;;;;;21.93;71.03;101761.59;5073867;27;46255;-73
2022/07/02 09:47:53;;;;;;;;;2.00;0.67;;;;;21.95;67.22;101757.06;5073921;28;45442;-76
2022/07/02 09:50:20;;;;;;;;;0.33;0.00;;;;;22.00;68.13;101756.06;5072846;27;46624;-74
2022/07/02 09:52:48;;;;;;;;;0.00;0.00;;;;;22.03;67.04;101764.97;5070716;28;45733;-77
2022/07/02 09:55:26;;;;;;;;;0.00;0.00;;;;;22.07;66.17;101757.72;5073171;27;45433;-75
2022/07/02 09:57:54;;;;;;;;;1.33;0.00;;;;;22.12;65.74;101758.53;5072544;28;45378;-72
2022/07/02 10:00:20;;;;;;;;;0.00;0.00;;;;;22.15;66.36;101759.34;5072412;27;46830;-74
2022/07/02 10:02:53;;;;;;;;;0.00;0.00;;;;;22.19;66.39;101754.78;5068088;28;46796;-76
2022/07/02 10:05:33;;;;;;;;;0.00;0.00;;;;;22.20;64.79;101749.38;5071426;27;45612;-77
2022/07/02 10:08:00;;;;;;;;;2.00;1.00;;;;;22.20;63.70;101743.97;5070828;28;45516;-78
2022/07/02 10:10:25;;;;;;;;;0.67;0.67;;;;;22.27;65.16;101744.75;5072702;27;46010;-74
2022/07/02 10:12:51;;;;;;;;;0.00;0.00;;;;;22.30;65.41;101743.78;5072259;28;45502;-78
2022/07/02 10:15:19;;;;;;;;;2.00;1.00;;;;;22.33;66.20;101731.16;5071078;28;60565;-75
2022/07/02 10:17:45;;;;;;;;;0.00;0.00;;;;;22.38;66.00;101723.84;5073122;27;45433;-79
2022/07/02 10:20:11;;;;;;;;;2.00;0.00;;;;;22.43;64.01;101730.03;5071518;27;62393;-79
2022/07/02 10:22:37;;;;;;;;;0.67;0.67;;;;;22.48;64.79;101732.59;5066648;28;70768;-74
2022/07/02 10:25:04;;;;;;;;;0.33;0.00;;;;;22.53;62.33;101724.38;5064237;28;57533;-75
2022/07/02 10:27:30;;;;;;;;;3.33;1.00;;;;;22.55;63.52;101726.13;5065214;28;45620;-79
2022/07/02 10:29:55;;;;;;;;;0.00;0.00;;;;;22.59;63.82;101727.84;5071108;28;70529;-74
2022/07/02 10:32:28;;;;;;;;;2.00;0.67;;;;;22.62;63.25;101718.78;5070824;28;65661;-73
2022/07/02 10:35:06;;;;;;;;;0.00;0.00;;;;;22.65;64.01;101713.34;5069656;28;45899;-76
2022/07/02 10:37:32;;;;;;;;;0.00;0.00;;;;;22.68;60.77;101708.75;5073069;27;45440;-74
2022/07/02 10:40:03;;;;;;;;;0.00;0.00;;;;;22.74;60.43;101708.63;5072684;27;46482;-73
2022/07/02 10:42:39;;;;;;;;;1.33;0.00;;;;;22.82;62.37;101712.91;5072578;27;45422;-78
2022/07/02 10:45:12;;;;;;;;;3.67;1.00;;;;;22.85;63.37;101713.72;5070111;28;45728;-77
2022/07/02 10:48:04;;;;;;;;;4.00;3.00;;;;;22.90;61.84;101703.72;5072508;27;45452;-74
2022/07/02 10:50:37;;;;;;;;;1.00;1.00;;;;;22.94;62.76;101708.09;5070847;28;45560;-76
2022/07/02 10:53:10;;;;;;;;;2.00;0.33;;;;;22.97;60.94;101710.75;5072718;28;45978;-75
2022/07/02 10:55:36;;;;;;;;;2.00;1.00;;;;;23.04;61.90;101706.06;5071496;27;45686;-75
2022/07/02 10:58:06;;;;;;;;;2.00;1.67;;;;;23.07;61.06;101703.31;5072393;27;45723;-74
2022/07/02 11:00:31;;;;;;;;;2.00;1.00;;;;;23.11;60.87;101698.69;5072047;27;45700;-74
2022/07/02 11:02:58;;;;;;;;;5.00;1.00;;;;;23.12;61.51;101689.72;5072118;27;45461;-74
2022/07/02 11:05:24;;;;;;;;;2.00;2.00;;;;;23.16;62.77;101696.75;5072345;27;45691;-76
2022/07/02 11:07:49;;;;;;;;;1.67;1.00;;;;;23.22;61.63;101693.88;5072879;28;45562;-76
2022/07/02 11:10:15;;;;;;;;;0.00;0.00;;;;;23.26;62.32;101696.47;5070103;28;47804;-75
2022/07/02 11:12:40;;;;;;;;;0.67;0.00;;;;;23.32;60.99;101695.41;5070792;27;62591;-76
2022/07/02 11:15:16;;;;;;;;;5.00;3.33;;;;;23.38;58.63;101699.72;5072465;28;45516;-76
2022/07/02 11:17:47;;;;;;;;;1.00;1.00;;;;;23.46;59.99;101703.09;5069088;28;45560;-84
2022/07/02 11:20:12;;;;;;;;;1.00;1.00;;;;;23.52;60.06;101698.41;5065970;28;47715;-77
2022/07/02 11:22:38;;;;;;;;;1.33;1.33;;;;;23.56;57.70;101701.03;5071660;27;64851;-76